createdAt,value
2022-09-20T00:00:12.025Z,38.83
2022-09-20T00:01:12.107Z,46.08
2022-09-20T00:02:12.024Z,39.96
2022-09-20T00:03:12.021Z,54.46
2022-09-20T00:04:11.998Z,47.70
2022-09-20T00:05:12.055Z,53.66
2022-09-20T00:06:11.988Z,49.47
2022-09-20T00:07:11.982Z,46.08
2022-09-20T00:08:11.966Z,39.80
2022-09-20T00:09:11.969Z,38.51
2022-09-20T00:10:11.946Z,38.35
2022-09-20T00:11:11.940Z,38.83
2022-09-20T00:12:11.940Z,39.32
2022-09-20T00:13:11.930Z,38.99
2022-09-20T00:14:12.904Z,40.61
2022-09-20T00:15:11.906Z,41.89
2022-09-20T00:16:11.964Z,52.21
2022-09-20T00:17:11.885Z,55.91
2022-09-20T00:18:11.896Z,43.34
2022-09-20T00:19:11.868Z,42.38
2022-09-20T00:20:11.866Z,57.04
2022-09-20T00:21:11.849Z,43.34
2022-09-20T00:22:11.848Z,41.09
2022-09-20T00:23:11.844Z,43.67
2022-09-20T00:24:11.823Z,42.06
2022-09-20T00:25:11.823Z,42.54
2022-09-20T00:26:11.815Z,41.25
2022-09-20T00:27:11.816Z,42.54
2022-09-20T00:28:11.793Z,43.67
2022-09-20T00:29:11.797Z,51.24
2022-09-20T00:32:11.965Z,47.70
2022-09-20T00:33:11.928Z,43.18
2022-09-20T00:34:11.939Z,48.66
2022-09-20T00:35:11.910Z,51.40
2022-09-20T00:36:11.902Z,43.99
2022-09-20T00:37:11.892Z,39.16
2022-09-20T00:38:11.894Z,40.12
2022-09-20T00:39:11.880Z,42.38
2022-09-20T00:40:11.926Z,39.96
2022-09-20T00:41:11.860Z,42.38
2022-09-20T00:42:12.952Z,38.99
2022-09-20T00:43:12.951Z,43.02
2022-09-20T00:44:12.938Z,40.61
2022-09-20T00:45:12.920Z,40.12
2022-09-20T00:46:12.955Z,40.12
2022-09-20T00:47:12.909Z,41.25
2022-09-20T00:48:12.901Z,42.70
2022-09-20T00:49:12.909Z,43.99
2022-09-20T00:50:12.882Z,52.05
2022-09-20T00:51:12.877Z,41.89
2022-09-20T00:52:12.868Z,39.32
2022-09-20T00:53:12.866Z,38.99
2022-09-20T00:54:15.717Z,39.96
2022-09-20T00:55:13.865Z,46.89
2022-09-20T00:56:12.865Z,47.53
2022-09-20T00:57:12.822Z,42.38
2022-09-20T00:58:12.813Z,55.43
2022-09-20T00:59:12.804Z,40.61
2022-09-20T01:00:12.797Z,40.77
2022-09-20T01:01:12.938Z,38.99
2022-09-20T01:02:12.871Z,47.70
2022-09-20T01:03:13.781Z,41.25
2022-09-20T01:04:12.766Z,39.32
2022-09-20T01:05:12.761Z,39.80
2022-09-20T01:06:12.761Z,41.89
2022-09-20T01:07:12.733Z,42.06
2022-09-20T01:08:12.736Z,40.61
2022-09-20T01:09:12.756Z,40.28
2022-09-20T01:10:12.714Z,45.92
2022-09-20T01:11:12.721Z,49.47
2022-09-20T01:12:12.699Z,46.73
2022-09-20T01:13:13.620Z,43.18
2022-09-20T01:14:12.685Z,42.54
2022-09-20T01:15:12.680Z,43.67
2022-09-20T01:16:12.718Z,48.82
2022-09-20T01:17:12.660Z,42.22
2022-09-20T01:18:12.655Z,41.89
2022-09-20T01:19:12.657Z,41.09
2022-09-20T01:20:12.631Z,46.08
2022-09-20T01:21:12.619Z,41.41
2022-09-20T01:22:12.619Z,50.60
2022-09-20T01:23:12.608Z,39.16
2022-09-20T01:24:12.601Z,38.67
2022-09-20T01:25:12.595Z,42.70
2022-09-20T01:26:12.579Z,45.12
2022-09-20T01:27:12.573Z,39.32
2022-09-20T01:28:12.576Z,41.41
2022-09-20T01:29:12.556Z,47.21
2022-09-20T01:30:12.547Z,47.86
2022-09-20T01:31:12.624Z,50.27
2022-09-20T01:32:13.195Z,41.25
2022-09-20T01:33:12.527Z,41.73
2022-09-20T01:34:12.518Z,40.44
2022-09-20T01:35:12.506Z,49.47
2022-09-20T01:36:12.494Z,40.77
2022-09-20T01:37:12.492Z,40.12
2022-09-20T01:38:12.496Z,40.12
2022-09-20T01:39:12.483Z,40.77
2022-09-20T01:40:12.547Z,41.09
2022-09-20T01:41:12.464Z,44.15
2022-09-20T01:42:12.453Z,39.96
2022-09-20T01:43:12.462Z,42.22
2022-09-20T01:44:12.459Z,41.09
2022-09-20T01:45:12.429Z,38.67
2022-09-20T01:46:12.493Z,38.83
2022-09-20T01:47:12.416Z,42.86
2022-09-20T01:48:12.417Z,41.57
2022-09-20T01:49:12.399Z,43.34
2022-09-20T01:50:13.120Z,39.64
2022-09-20T01:51:12.406Z,39.96
2022-09-20T01:52:12.375Z,41.09
2022-09-20T01:53:12.378Z,40.93
2022-09-20T01:54:12.354Z,39.64
2022-09-20T01:55:12.356Z,40.28
2022-09-20T01:56:12.330Z,42.54
2022-09-20T01:57:12.327Z,39.80
2022-09-20T01:58:12.337Z,39.64
2022-09-20T01:59:23.614Z,41.57
2022-09-20T02:00:14.315Z,38.99
2022-09-20T02:01:12.415Z,39.80
2022-09-20T02:02:12.312Z,41.57
2022-09-20T02:03:12.295Z,40.93
2022-09-20T02:04:12.276Z,44.31
2022-09-20T02:05:12.273Z,45.92
2022-09-20T02:06:12.256Z,42.70
2022-09-20T02:07:12.273Z,40.77
2022-09-20T02:08:12.242Z,42.54
2022-09-20T02:09:12.226Z,41.41
2022-09-20T02:10:12.226Z,44.15
2022-09-20T02:11:12.225Z,42.38
2022-09-20T02:12:12.226Z,40.77
2022-09-20T02:13:12.191Z,44.47
2022-09-20T02:14:12.196Z,41.57
2022-09-20T02:15:12.189Z,40.93
2022-09-20T02:16:12.212Z,41.09
2022-09-20T02:17:12.184Z,42.06
2022-09-20T02:18:12.157Z,41.09
2022-09-20T02:19:12.178Z,42.86
2022-09-20T02:20:12.158Z,44.96
2022-09-20T02:21:12.156Z,44.47
2022-09-20T02:22:12.127Z,43.18
2022-09-20T02:23:12.181Z,43.02
2022-09-20T02:24:12.144Z,41.89
2022-09-20T02:25:13.105Z,43.99
2022-09-20T02:26:12.122Z,51.08
2022-09-20T02:27:12.092Z,42.06
2022-09-20T02:28:12.084Z,46.73
2022-09-20T02:29:12.071Z,48.98
2022-09-20T02:30:12.060Z,43.02
2022-09-20T02:31:12.102Z,46.89
2022-09-20T02:32:12.061Z,60.26
2022-09-20T02:33:12.032Z,51.08
2022-09-20T02:34:12.023Z,56.24
2022-09-20T02:35:12.028Z,42.38
2022-09-20T02:36:12.017Z,41.57
2022-09-20T02:37:12.013Z,50.92
2022-09-20T02:38:12.011Z,45.12
2022-09-20T02:39:11.983Z,42.86
2022-09-20T02:40:12.037Z,53.17
2022-09-20T02:41:11.991Z,53.82
2022-09-20T02:42:11.961Z,51.88
2022-09-20T02:43:11.957Z,51.88
2022-09-20T02:44:11.951Z,51.40
2022-09-20T02:45:11.951Z,44.15
2022-09-20T02:46:11.961Z,43.51
2022-09-20T02:47:12.680Z,45.12
2022-09-20T02:48:11.915Z,51.88
2022-09-20T02:49:11.904Z,48.82
2022-09-20T02:50:11.901Z,58.01
2022-09-20T02:51:11.887Z,42.22
2022-09-20T02:52:11.884Z,42.86
2022-09-20T02:53:12.870Z,54.95
2022-09-20T02:54:11.859Z,52.37
2022-09-20T02:55:11.865Z,57.52
2022-09-20T02:56:11.854Z,48.98
2022-09-20T02:57:11.865Z,49.47
2022-09-20T02:58:11.846Z,43.51
2022-09-20T02:59:11.833Z,41.41
2022-09-20T03:00:11.811Z,51.08
2022-09-20T03:01:11.823Z,50.27
2022-09-20T03:02:11.854Z,51.40
2022-09-20T03:03:11.795Z,50.60
2022-09-20T03:04:12.632Z,40.93
2022-09-20T03:05:11.774Z,54.62
2022-09-20T03:06:12.769Z,53.50
2022-09-20T03:07:11.758Z,48.82
2022-09-20T03:08:11.748Z,53.98
2022-09-20T03:09:11.738Z,51.08
2022-09-20T03:10:11.738Z,52.37
2022-09-20T03:11:11.720Z,53.98
2022-09-20T03:12:11.731Z,52.69
2022-09-20T03:13:11.727Z,54.79
2022-09-20T03:14:11.773Z,52.69
2022-09-20T03:15:11.691Z,48.66
2022-09-20T03:16:11.724Z,52.21
2022-09-20T03:17:11.687Z,54.95
2022-09-20T03:18:11.683Z,54.46
2022-09-20T03:19:11.666Z,62.20
2022-09-20T03:20:11.653Z,58.65
2022-09-20T03:21:11.647Z,58.49
2022-09-20T03:22:11.635Z,52.85
2022-09-20T03:23:11.633Z,55.59
2022-09-20T03:24:11.637Z,58.33
2022-09-20T03:25:11.615Z,56.72
2022-09-20T03:26:11.661Z,56.24
2022-09-20T03:27:11.599Z,55.59
2022-09-20T03:28:11.589Z,49.15
2022-09-20T03:29:11.584Z,57.52
2022-09-20T03:30:11.576Z,56.40
2022-09-20T03:31:11.573Z,57.20
2022-09-20T03:32:11.600Z,59.46
2022-09-20T03:33:11.544Z,58.97
2022-09-20T03:34:11.554Z,57.20
2022-09-20T03:35:11.534Z,58.97
2022-09-20T03:36:11.527Z,61.87
2022-09-20T03:37:11.516Z,57.69
2022-09-20T03:38:11.510Z,59.94
2022-09-20T03:39:11.499Z,65.42
2022-09-20T03:40:11.520Z,51.24
2022-09-20T03:41:11.488Z,48.66
2022-09-20T03:42:11.472Z,56.07
2022-09-20T03:43:11.465Z,55.43
2022-09-20T03:44:11.459Z,60.42
2022-09-20T03:45:11.464Z,56.07
2022-09-20T03:46:11.513Z,55.43
2022-09-20T03:47:11.447Z,59.30
2022-09-20T03:48:11.438Z,54.79
2022-09-20T03:49:11.430Z,57.85
2022-09-20T03:50:11.418Z,60.26
2022-09-20T03:51:11.414Z,55.43
2022-09-20T03:52:11.402Z,60.42
2022-09-20T03:53:11.390Z,57.85
2022-09-20T03:54:11.394Z,56.88
2022-09-20T03:55:11.377Z,57.36
2022-09-20T03:56:11.380Z,58.33
2022-09-20T03:57:11.364Z,58.17
2022-09-20T03:58:11.361Z,55.75
2022-09-20T03:59:11.343Z,49.47
2022-09-20T04:00:11.330Z,49.47
2022-09-20T04:01:11.377Z,57.52
2022-09-20T04:02:11.412Z,47.53
2022-09-20T04:03:11.328Z,46.73
2022-09-20T04:04:11.325Z,56.24
2022-09-20T04:05:11.296Z,60.10
2022-09-20T04:06:11.291Z,58.49
2022-09-20T04:07:11.272Z,54.14
2022-09-20T04:08:12.284Z,58.97
2022-09-20T04:09:11.287Z,54.62
2022-09-20T04:10:11.268Z,58.49
2022-09-20T04:11:11.264Z,56.40
2022-09-20T04:12:11.290Z,60.75
2022-09-20T04:13:11.238Z,57.85
2022-09-20T04:14:11.664Z,57.36
2022-09-20T04:15:12.242Z,51.72
2022-09-20T04:16:11.261Z,55.75
2022-09-20T04:17:11.208Z,59.62
2022-09-20T04:18:11.208Z,59.78
2022-09-20T04:19:11.179Z,60.42
2022-09-20T04:20:11.176Z,60.10
2022-09-20T04:21:11.181Z,58.65
2022-09-20T04:22:11.160Z,57.69
2022-09-20T04:23:11.172Z,59.14
2022-09-20T04:24:11.144Z,60.59
2022-09-20T04:25:11.142Z,59.62
2022-09-20T04:26:11.143Z,56.72
2022-09-20T04:27:11.130Z,58.49
2022-09-20T04:28:11.135Z,64.45
2022-09-20T04:29:11.106Z,64.13
2022-09-20T04:30:11.087Z,60.42
2022-09-20T04:31:11.089Z,60.10
2022-09-20T04:32:11.129Z,60.10
2022-09-20T04:33:11.071Z,61.39
2022-09-20T04:34:11.050Z,60.42
2022-09-20T04:35:12.057Z,61.23
2022-09-20T04:36:11.050Z,63.49
2022-09-20T04:37:11.049Z,58.97
2022-09-20T04:38:11.097Z,57.52
2022-09-20T04:39:11.025Z,64.45
2022-09-20T04:40:11.103Z,54.79
2022-09-20T04:41:11.009Z,59.94
2022-09-20T04:42:11.006Z,61.07
2022-09-20T04:43:10.995Z,58.01
2022-09-20T04:44:10.982Z,62.20
2022-09-20T04:45:10.973Z,61.71
2022-09-20T04:46:11.034Z,61.07
2022-09-20T04:47:10.954Z,60.10
2022-09-20T04:48:10.953Z,59.46
2022-09-20T04:49:10.936Z,59.94
2022-09-20T04:50:10.933Z,63.00
2022-09-20T04:51:10.921Z,64.45
2022-09-20T04:52:10.914Z,62.20
2022-09-20T04:53:10.912Z,61.87
2022-09-20T04:54:10.912Z,62.20
2022-09-20T04:55:10.913Z,61.39
2022-09-20T04:56:10.899Z,61.39
2022-09-20T04:57:10.873Z,59.46
2022-09-20T04:58:10.862Z,59.30
2022-09-20T04:59:10.869Z,59.30
2022-09-20T05:00:10.858Z,57.52
2022-09-20T05:01:10.908Z,61.71
2022-09-20T05:02:10.880Z,59.46
2022-09-20T05:03:10.830Z,63.00
2022-09-20T05:04:10.829Z,60.10
2022-09-20T05:05:10.810Z,63.00
2022-09-20T05:06:10.800Z,61.55
2022-09-20T05:07:10.791Z,63.33
2022-09-20T05:08:10.785Z,64.13
2022-09-20T05:09:10.927Z,66.23
2022-09-20T05:10:10.764Z,60.10
2022-09-20T05:11:10.773Z,61.39
2022-09-20T05:12:10.754Z,59.94
2022-09-20T05:13:10.744Z,63.00
2022-09-20T05:14:10.740Z,63.97
2022-09-20T05:15:10.731Z,61.23
2022-09-20T05:16:10.817Z,61.23
2022-09-20T05:17:10.750Z,65.74
2022-09-20T05:18:10.708Z,66.39
2022-09-20T05:19:10.700Z,60.59
2022-09-20T05:20:10.735Z,67.35
2022-09-20T05:21:12.688Z,65.58
2022-09-20T05:22:10.681Z,62.84
2022-09-20T05:23:10.656Z,63.97
2022-09-20T05:24:12.527Z,60.91
2022-09-20T05:25:11.651Z,66.06
2022-09-20T05:26:10.634Z,67.19
2022-09-20T05:27:10.640Z,65.90
2022-09-20T05:28:10.624Z,65.26
2022-09-20T05:29:10.645Z,65.26
2022-09-20T05:30:10.605Z,63.16
2022-09-20T05:31:10.592Z,63.33
2022-09-20T05:32:10.703Z,64.78
2022-09-20T05:33:10.587Z,66.39
2022-09-20T05:34:10.571Z,62.04
2022-09-20T05:35:10.567Z,61.87
2022-09-20T05:36:10.558Z,62.36
2022-09-20T05:37:10.589Z,63.49
2022-09-20T05:38:10.545Z,65.10
2022-09-20T05:39:10.527Z,62.04
2022-09-20T05:40:10.546Z,63.81
2022-09-20T05:41:10.514Z,63.16
2022-09-20T05:42:10.523Z,64.13
2022-09-20T05:43:10.526Z,62.36
2022-09-20T05:44:10.497Z,65.42
2022-09-20T05:45:10.496Z,61.39
2022-09-20T05:46:10.502Z,63.16
2022-09-20T05:47:10.475Z,62.20
2022-09-20T05:48:10.470Z,61.71
2022-09-20T05:49:10.460Z,67.03
2022-09-20T05:50:10.461Z,62.20
2022-09-20T05:51:10.435Z,63.00
2022-09-20T05:52:10.436Z,62.52
2022-09-20T05:53:10.443Z,61.71
2022-09-20T05:54:10.434Z,61.55
2022-09-20T05:55:10.407Z,62.20
2022-09-20T05:56:10.397Z,64.78
2022-09-20T05:57:10.408Z,60.91
2022-09-20T05:58:10.397Z,63.16
2022-09-20T05:59:11.696Z,64.45
2022-09-20T06:00:11.376Z,64.61
2022-09-20T06:01:10.467Z,61.55
2022-09-20T06:02:10.444Z,61.39
2022-09-20T06:03:10.361Z,64.94
2022-09-20T06:04:11.218Z,63.16
2022-09-20T06:05:10.335Z,65.42
2022-09-20T06:06:11.173Z,59.94
2022-09-20T06:07:10.318Z,60.59
2022-09-20T06:08:10.303Z,61.39
2022-09-20T06:09:10.306Z,61.39
2022-09-20T06:10:10.298Z,61.07
2022-09-20T06:11:11.264Z,62.52
2022-09-20T06:12:10.273Z,59.94
2022-09-20T06:13:10.275Z,62.68
2022-09-20T06:14:10.266Z,61.07
2022-09-20T06:15:10.263Z,61.87
2022-09-20T06:16:10.270Z,61.55
2022-09-20T06:17:10.235Z,65.74
2022-09-20T06:18:10.230Z,60.10
2022-09-20T06:19:10.226Z,65.90
2022-09-20T06:20:10.214Z,61.87
2022-09-20T06:21:10.205Z,64.29
2022-09-20T06:22:10.191Z,59.62
2022-09-20T06:23:10.188Z,59.78
2022-09-20T06:24:10.188Z,60.10
2022-09-20T06:25:10.183Z,59.94
2022-09-20T06:26:10.171Z,61.07
2022-09-20T06:27:10.153Z,61.07
2022-09-20T06:28:10.156Z,64.45
2022-09-20T06:29:10.254Z,64.94
2022-09-20T06:30:10.153Z,64.78
2022-09-20T06:31:10.228Z,60.59
2022-09-20T06:32:10.114Z,62.52
2022-09-20T06:33:10.120Z,60.75
2022-09-20T06:34:10.114Z,60.10
2022-09-20T06:35:10.095Z,60.26
2022-09-20T06:36:10.090Z,60.26
2022-09-20T06:37:10.080Z,60.10
2022-09-20T06:38:10.085Z,61.39
2022-09-20T06:39:11.056Z,61.55
2022-09-20T06:40:10.128Z,61.07
2022-09-20T06:41:10.048Z,63.16
2022-09-20T06:42:10.046Z,59.78
2022-09-20T06:43:10.029Z,60.26
2022-09-20T06:44:10.046Z,62.04
2022-09-20T06:45:10.019Z,62.68
2022-09-20T06:46:10.020Z,58.97
2022-09-20T06:47:10.012Z,61.87
2022-09-20T06:48:09.990Z,59.78
2022-09-20T06:49:09.988Z,61.71
2022-09-20T06:50:10.011Z,57.20
2022-09-20T06:51:09.986Z,60.59
2022-09-20T06:52:09.983Z,60.59
2022-09-20T06:53:09.944Z,59.94
2022-09-20T06:54:09.938Z,62.20
2022-09-20T06:55:09.938Z,62.84
2022-09-20T06:56:09.922Z,62.68
2022-09-20T06:57:09.926Z,62.36
2022-09-20T06:58:09.918Z,61.55
2022-09-20T06:59:09.906Z,63.81
2022-09-20T07:00:09.892Z,63.16
2022-09-20T07:01:09.988Z,60.75
2022-09-20T07:02:09.900Z,60.10
2022-09-20T07:03:09.884Z,61.39
2022-09-20T07:04:09.854Z,63.49
2022-09-20T07:05:09.859Z,63.65
2022-09-20T07:06:09.840Z,60.91
2022-09-20T07:07:09.886Z,60.10
2022-09-20T07:08:09.829Z,62.20
2022-09-20T07:09:09.822Z,63.00
2022-09-20T07:10:09.800Z,60.10
2022-09-20T07:11:09.794Z,58.65
2022-09-20T07:12:09.800Z,56.40
2022-09-20T07:13:10.690Z,60.10
2022-09-20T07:14:09.799Z,63.81
2022-09-20T07:15:09.874Z,62.68
2022-09-20T07:16:09.824Z,60.91
2022-09-20T07:17:10.760Z,63.16
2022-09-20T07:18:09.809Z,61.07
2022-09-20T07:19:09.746Z,60.91
2022-09-20T07:20:09.737Z,62.68
2022-09-20T07:21:09.732Z,63.00
2022-09-20T07:22:09.707Z,65.26
2022-09-20T07:23:09.706Z,63.65
2022-09-20T07:24:09.723Z,65.58
2022-09-20T07:25:09.707Z,61.55
2022-09-20T07:26:09.677Z,62.84
2022-09-20T07:27:09.679Z,62.20
2022-09-20T07:28:09.663Z,61.71
2022-09-20T07:29:09.667Z,64.29
2022-09-20T07:30:09.651Z,64.13
2022-09-20T07:31:09.643Z,63.16
2022-09-20T07:32:09.627Z,60.26
2022-09-20T07:33:09.619Z,64.78
2022-09-20T07:34:09.622Z,58.33
2022-09-20T07:35:09.616Z,62.04
2022-09-20T07:36:09.606Z,63.65
2022-09-20T07:37:09.591Z,62.68
2022-09-20T07:38:09.587Z,64.78
2022-09-20T07:39:09.577Z,63.16
2022-09-20T07:40:09.645Z,64.45
2022-09-20T07:41:09.568Z,64.94
2022-09-20T07:42:09.550Z,64.13
2022-09-20T07:43:09.537Z,63.33
2022-09-20T07:44:09.642Z,65.26
2022-09-20T07:45:09.592Z,66.55
2022-09-20T07:46:09.564Z,59.62
2022-09-20T07:47:09.522Z,64.13
2022-09-20T07:48:09.501Z,66.39
2022-09-20T07:49:09.487Z,64.61
2022-09-20T07:50:09.493Z,66.39
2022-09-20T07:51:09.467Z,63.81
2022-09-20T07:52:09.465Z,65.58
2022-09-20T07:53:09.466Z,66.06
2022-09-20T07:54:09.453Z,66.71
2022-09-20T07:55:09.450Z,65.90
2022-09-20T07:56:09.428Z,67.03
2022-09-20T07:57:09.431Z,65.26
2022-09-20T07:58:09.418Z,64.94
2022-09-20T07:59:09.410Z,67.19
2022-09-20T08:00:09.423Z,65.90
2022-09-20T08:01:09.451Z,65.58
2022-09-20T08:02:09.416Z,67.35
2022-09-20T08:03:09.387Z,66.06
2022-09-20T08:04:09.370Z,64.78
2022-09-20T08:05:09.365Z,63.97
2022-09-20T08:06:09.366Z,67.19
2022-09-20T08:07:09.335Z,70.90
2022-09-20T08:08:10.340Z,70.74
2022-09-20T08:09:11.273Z,71.38
2022-09-20T08:10:10.330Z,65.90
2022-09-20T08:11:09.328Z,66.55
2022-09-20T08:14:11.352Z,66.23
2022-09-20T08:15:11.914Z,72.51
2022-09-20T08:16:10.290Z,64.78
2022-09-20T08:17:09.304Z,66.23
2022-09-20T08:18:09.265Z,65.10
2022-09-20T08:19:09.265Z,65.58
2022-09-20T08:20:09.256Z,65.26
2022-09-20T08:21:09.227Z,66.23
2022-09-20T08:22:09.232Z,68.64
2022-09-20T08:23:23.071Z,68.96
2022-09-20T08:24:11.208Z,65.26
2022-09-20T08:25:09.203Z,67.68
2022-09-20T08:26:09.227Z,63.49
2022-09-20T08:27:09.206Z,63.16
2022-09-20T08:28:09.235Z,62.68
2022-09-20T08:29:09.224Z,62.20
2022-09-20T08:30:09.159Z,63.00
2022-09-20T08:31:09.159Z,63.16
2022-09-20T08:32:09.159Z,64.45
2022-09-20T08:33:09.144Z,61.71
2022-09-20T08:34:09.125Z,61.23
2022-09-20T08:35:09.124Z,60.10
2022-09-20T08:36:10.114Z,59.62
2022-09-20T08:37:09.110Z,61.23
2022-09-20T08:40:11.089Z,60.26
2022-09-20T08:41:09.070Z,60.42
2022-09-20T08:42:09.071Z,62.04
2022-09-20T08:43:09.064Z,64.94
2022-09-20T08:44:09.049Z,64.45
2022-09-20T08:45:09.043Z,61.23
2022-09-20T08:46:09.077Z,64.94
2022-09-20T08:47:09.022Z,65.10
2022-09-20T08:48:09.014Z,63.00
2022-09-20T08:49:10.881Z,64.13
2022-09-20T08:50:11.398Z,63.49
2022-09-20T08:51:08.988Z,62.68
2022-09-20T08:52:12.017Z,62.20
2022-09-20T08:53:10.019Z,64.29
2022-09-20T08:54:08.987Z,62.68
2022-09-20T08:55:08.965Z,62.84
2022-09-20T08:56:08.954Z,61.23
2022-09-20T08:57:08.984Z,63.00
2022-09-20T08:58:09.174Z,60.42
2022-09-20T08:59:09.923Z,60.91
2022-09-20T09:00:08.923Z,63.97
2022-09-20T09:01:08.983Z,62.68
2022-09-20T09:02:09.037Z,65.10
2022-09-20T09:03:08.904Z,60.59
2022-09-20T09:04:08.952Z,62.36
2022-09-20T09:05:08.880Z,67.51
2022-09-20T09:06:12.455Z,58.65
2022-09-20T09:07:10.854Z,63.00
2022-09-20T09:08:08.865Z,61.39
2022-09-20T09:09:08.845Z,63.16
2022-09-20T09:10:09.799Z,65.58
2022-09-20T09:11:08.836Z,65.42
2022-09-20T09:12:08.821Z,61.71
2022-09-20T09:13:08.824Z,63.16
2022-09-20T09:14:08.809Z,63.49
2022-09-20T09:15:08.789Z,64.13
2022-09-20T09:16:08.798Z,62.20
2022-09-20T09:17:08.826Z,65.10
2022-09-20T09:18:08.778Z,63.49
2022-09-20T09:19:08.803Z,64.13
2022-09-20T09:20:08.756Z,64.78
2022-09-20T09:21:08.752Z,64.45
2022-09-20T09:22:08.732Z,63.49
2022-09-20T09:23:08.730Z,63.97
2022-09-20T09:24:08.736Z,62.20
2022-09-20T09:25:08.719Z,60.75
2022-09-20T09:26:08.701Z,62.68
2022-09-20T09:27:08.692Z,63.16
2022-09-20T09:28:08.680Z,63.65
2022-09-20T09:29:08.700Z,64.13
2022-09-20T09:30:08.672Z,62.84
2022-09-20T09:31:08.660Z,63.65
2022-09-20T09:32:08.679Z,61.87
2022-09-20T09:33:08.642Z,62.84
2022-09-20T09:34:08.703Z,61.71
2022-09-20T09:35:08.640Z,64.61
2022-09-20T09:36:08.643Z,65.90
2022-09-20T09:37:08.621Z,64.29
2022-09-20T09:38:08.616Z,65.26
2022-09-20T09:39:08.599Z,63.97
2022-09-20T09:40:08.714Z,63.00
2022-09-20T09:41:08.595Z,63.16
2022-09-20T09:42:08.573Z,62.52
2022-09-20T09:43:08.566Z,60.42
2022-09-20T09:44:08.560Z,65.26
2022-09-20T09:45:08.566Z,64.29
2022-09-20T09:46:08.649Z,60.59
2022-09-20T09:47:08.552Z,64.29
2022-09-20T09:48:08.526Z,63.33
2022-09-20T09:49:10.933Z,63.00
2022-09-20T09:50:10.093Z,62.84
2022-09-20T09:51:09.504Z,61.71
2022-09-20T09:52:08.495Z,62.52
2022-09-20T09:53:08.491Z,62.52
2022-09-20T09:54:08.498Z,63.65
2022-09-20T09:55:08.471Z,65.26
2022-09-20T09:56:13.381Z,65.58
2022-09-20T09:57:10.448Z,63.65
2022-09-20T09:58:08.465Z,60.75
2022-09-20T09:59:08.449Z,62.68
2022-09-20T10:00:15.296Z,58.97
2022-09-20T10:01:10.451Z,60.42
2022-09-20T10:02:08.447Z,62.84
2022-09-20T10:03:08.405Z,64.45
2022-09-20T10:04:08.417Z,63.65
2022-09-20T10:05:08.401Z,64.29
2022-09-20T10:06:08.376Z,61.07
2022-09-20T10:07:08.375Z,60.75
2022-09-20T10:08:08.375Z,63.00
2022-09-20T10:09:08.362Z,63.16
2022-09-20T10:10:08.362Z,63.33
2022-09-20T10:11:08.339Z,63.33
2022-09-20T10:12:08.343Z,62.04
2022-09-20T10:13:08.324Z,61.23
2022-09-20T10:14:08.334Z,61.39
2022-09-20T10:15:08.312Z,64.61
2022-09-20T10:16:08.386Z,59.94
2022-09-20T10:17:08.295Z,62.20
2022-09-20T10:18:08.283Z,63.97
2022-09-20T10:19:08.307Z,63.81
2022-09-20T10:20:08.281Z,65.42
2022-09-20T10:21:08.266Z,65.26
2022-09-20T10:22:08.247Z,60.42
2022-09-20T10:23:39.282Z,61.55
2022-09-20T10:24:10.232Z,61.07
2022-09-20T10:25:08.238Z,63.00
2022-09-20T10:26:08.225Z,63.97
2022-09-20T10:27:08.213Z,65.26
2022-09-20T10:28:08.206Z,63.81
2022-09-20T10:29:08.253Z,64.45
2022-09-20T10:30:08.204Z,63.81
2022-09-20T10:31:08.243Z,62.68
2022-09-20T10:32:08.207Z,65.26
2022-09-20T10:33:08.164Z,61.71
2022-09-20T10:34:08.222Z,64.94
2022-09-20T10:35:08.178Z,66.06
2022-09-20T10:36:08.134Z,65.26
2022-09-20T10:37:08.129Z,63.49
2022-09-20T10:38:08.124Z,66.06
2022-09-20T10:39:08.111Z,62.36
2022-09-20T10:40:08.161Z,62.20
2022-09-20T10:41:08.117Z,64.29
2022-09-20T10:42:08.096Z,67.51
2022-09-20T10:43:09.781Z,65.42
2022-09-20T10:44:08.086Z,66.23
2022-09-20T10:45:08.061Z,62.04
2022-09-20T10:46:30.818Z,62.36
2022-09-20T10:47:10.108Z,63.16
2022-09-20T10:48:08.034Z,64.29
2022-09-20T10:49:08.029Z,64.61
2022-09-20T10:50:08.029Z,66.71
2022-09-20T10:51:08.019Z,63.49
2022-09-20T10:52:08.013Z,66.06
2022-09-20T10:53:07.996Z,64.94
2022-09-20T10:54:07.988Z,61.55
2022-09-20T10:55:07.997Z,64.78
2022-09-20T10:56:07.976Z,66.06
2022-09-20T10:57:07.984Z,64.45
2022-09-20T10:58:07.957Z,63.97
2022-09-20T10:59:07.956Z,64.78
2022-09-20T11:00:07.945Z,65.42
2022-09-20T11:01:07.987Z,63.81
2022-09-20T11:04:24.103Z,60.59
2022-09-20T11:05:16.193Z,63.97
2022-09-20T11:06:16.190Z,62.20
2022-09-20T11:07:16.190Z,61.39
2022-09-20T11:08:16.175Z,61.87
2022-09-20T11:09:16.158Z,60.75
2022-09-20T11:10:16.149Z,64.29
2022-09-20T11:11:18.181Z,65.58
2022-09-20T11:12:17.239Z,63.97
2022-09-20T11:13:17.225Z,68.00
2022-09-20T11:14:17.211Z,67.84
2022-09-20T11:15:18.191Z,66.71
2022-09-20T11:16:17.242Z,62.52
2022-09-20T11:17:19.108Z,67.19
2022-09-20T11:18:17.851Z,68.80
2022-09-20T11:19:17.176Z,69.93
2022-09-20T11:20:17.164Z,70.09
2022-09-20T11:21:17.160Z,69.45
2022-09-20T11:22:17.151Z,64.29
2022-09-20T11:23:17.135Z,65.10
2022-09-20T11:24:17.131Z,64.29
2022-09-20T11:25:20.917Z,64.45
2022-09-20T11:26:19.161Z,65.90
2022-09-20T11:27:17.233Z,65.26
2022-09-20T11:28:17.100Z,60.91
2022-09-20T11:29:17.089Z,63.49
2022-09-20T11:30:17.077Z,63.16
2022-09-20T11:31:17.081Z,61.55
2022-09-20T11:32:17.128Z,61.39
2022-09-20T11:33:17.052Z,67.03
2022-09-20T11:34:17.040Z,60.91
2022-09-20T11:35:17.036Z,63.16
2022-09-20T11:36:17.025Z,66.23
2022-09-20T11:37:17.024Z,62.84
2022-09-20T11:38:17.018Z,62.84
2022-09-20T11:39:17.003Z,66.39
2022-09-20T11:40:17.065Z,62.04
2022-09-20T11:41:16.983Z,61.39
2022-09-20T11:42:16.978Z,61.55
2022-09-20T11:43:16.963Z,64.13
2022-09-20T11:44:16.966Z,62.04
2022-09-20T11:45:16.957Z,61.23
2022-09-20T11:46:16.981Z,64.45
2022-09-20T11:47:31.262Z,63.00
2022-09-20T11:48:18.926Z,60.10
2022-09-20T11:49:16.916Z,60.91
2022-09-20T11:50:16.913Z,63.65
2022-09-20T11:51:16.898Z,62.68
2022-09-20T11:52:16.906Z,64.29
2022-09-20T11:53:16.885Z,63.65
2022-09-20T11:54:16.871Z,65.10
2022-09-20T11:55:16.863Z,64.13
2022-09-20T11:56:16.861Z,63.81
2022-09-20T11:57:16.852Z,65.42
2022-09-20T11:58:16.837Z,63.81
2022-09-20T11:59:16.833Z,61.39
2022-09-20T12:00:17.639Z,64.78
2022-09-20T12:01:16.813Z,63.97
2022-09-20T12:02:17.803Z,62.84
2022-09-20T12:03:16.950Z,60.42
2022-09-20T12:04:33.576Z,62.84
2022-09-20T12:05:18.779Z,65.42
2022-09-20T12:06:16.775Z,60.59
2022-09-20T12:07:18.058Z,65.58
2022-09-20T12:08:17.768Z,65.26
2022-09-20T12:09:16.751Z,60.10
2022-09-20T12:10:16.743Z,61.55
2022-09-20T12:11:16.735Z,65.42
2022-09-20T12:12:16.734Z,63.97
2022-09-20T12:13:16.730Z,62.04
2022-09-20T12:14:16.711Z,63.33
2022-09-20T12:15:16.705Z,64.78
2022-09-20T12:16:16.825Z,63.00
2022-09-20T12:17:16.688Z,64.78
2022-09-20T12:18:16.679Z,63.16
2022-09-20T12:19:16.688Z,65.42
2022-09-20T12:20:19.344Z,62.04
2022-09-20T12:21:17.696Z,60.42
2022-09-20T12:22:16.642Z,59.78
2022-09-20T12:23:16.645Z,64.78
2022-09-20T12:24:16.634Z,63.49
2022-09-20T12:25:16.620Z,63.65
2022-09-20T12:26:16.613Z,61.39
2022-09-20T12:27:16.601Z,64.13
2022-09-20T12:28:16.642Z,60.75
2022-09-20T12:29:17.215Z,65.10
2022-09-20T12:30:16.579Z,62.36
2022-09-20T12:31:16.661Z,62.52
2022-09-20T12:32:16.565Z,62.84
2022-09-20T12:33:16.560Z,63.81
2022-09-20T12:34:16.543Z,61.55
2022-09-20T12:35:16.535Z,64.29
2022-09-20T12:36:16.528Z,65.58
2022-09-20T12:37:16.526Z,65.26
2022-09-20T12:38:16.531Z,65.10
2022-09-20T12:39:22.380Z,61.23
2022-09-20T12:40:18.563Z,62.84
2022-09-20T12:41:16.497Z,63.65
2022-09-20T12:42:19.217Z,60.75
2022-09-20T12:43:16.665Z,63.81
2022-09-20T12:44:16.804Z,64.78
2022-09-20T12:45:49.694Z,60.59
2022-09-20T12:46:16.515Z,63.16
2022-09-20T12:47:16.462Z,62.68
2022-09-20T12:48:16.480Z,58.97
2022-09-20T12:49:16.437Z,63.49
2022-09-20T12:50:16.423Z,63.33
2022-09-20T12:51:16.432Z,63.33
2022-09-20T12:52:16.402Z,63.16
2022-09-20T12:53:16.397Z,62.84
2022-09-20T12:54:16.395Z,62.04
2022-09-20T12:55:16.387Z,64.13
2022-09-20T12:56:16.364Z,63.16
2022-09-20T12:57:16.360Z,64.61
2022-09-20T12:58:16.358Z,63.33
2022-09-20T12:59:17.174Z,64.45
2022-09-20T13:00:16.341Z,63.65